Time;durP1;ratioP1;P1;durP2;ratioP2;P2;SDS_P1;SDS_P2;PMS_P1;PMS_P2;Temp;Humidity;BMP_temperature;BMP_pressure;BME280_temperature;BME280_humidity;BME280_pressure;Samples;Min_cycle;Max_cycle;Signal;HPM_P1;HPM_P2
2022/02/22 00:01:00;;;;;;;18.40;6.45;;;;;;;19.85;40.78;101347.38;5012764;28;20469;-81
2022/02/22 00:03:26;;;;;;;17.30;5.60;;;;;;;19.95;40.61;101325.44;4995598;28;20033;-81
2022/02/22 00:05:52;;;;;;;24.27;5.93;;;;;;;19.89;40.77;101326.09;5013111;28;20536;-83
2022/02/22 00:08:17;;;;;;;20.17;6.20;;;;;;;19.98;40.68;101329.47;5012980;28;20515;-82
2022/02/22 00:10:43;;;;;;;16.85;5.47;;;;;;;19.98;40.91;101323.13;5012883;28;20068;-82
2022/02/22 00:13:08;;;;;;;19.60;5.25;;;;;;;19.95;40.83;101308.81;5013121;28;20029;-77
2022/02/22 00:15:34;;;;;;;13.90;4.93;;;;;;;20.02;40.85;101321.22;5012795;28;20034;-83
2022/02/22 00:18:01;;;;;;;17.60;5.55;;;;;;;19.99;41.08;101305.31;5013361;28;20104;-82
2022/02/22 00:20:27;;;;;;;16.13;5.82;;;;;;;19.90;41.20;101300.78;5012995;28;20029;-82
2022/02/22 00:22:53;;;;;;;17.85;5.25;;;;;;;20.05;40.93;101299.09;5012967;28;20030;-77
2022/02/22 00:25:18;;;;;;;17.98;6.30;;;;;;;20.09;40.93;101288.06;5013701;28;20041;-75
2022/02/22 00:27:45;;;;;;;21.58;5.22;;;;;;;20.07;40.96;101287.66;5013144;28;20029;-82
2022/02/22 00:30:12;;;;;;;26.08;6.45;;;;;;;20.00;41.08;101273.63;5013132;28;20030;-77
2022/02/22 00:32:41;;;;;;;18.30;5.60;;;;;;;20.06;41.10;101275.75;5013127;28;20030;-76
2022/02/22 00:35:09;;;;;;;25.55;6.35;;;;;;;19.91;41.40;101271.06;5013973;28;20038;-78
2022/02/22 00:37:36;;;;;;;16.17;4.82;;;;;;;19.93;41.46;101269.53;5013879;28;20083;-76
2022/02/22 00:40:04;;;;;;;15.70;4.78;;;;;;;19.99;41.39;101250.63;5013774;28;20105;-81
2022/02/22 00:42:30;;;;;;;15.55;5.10;;;;;;;20.06;41.35;101261.88;5013144;28;20022;-76
2022/02/22 00:44:55;;;;;;;16.63;4.97;;;;;;;20.12;41.20;101254.88;5013728;28;20080;-77
2022/02/22 00:47:21;;;;;;;13.27;4.93;;;;;;;20.14;41.19;101249.75;5013036;28;20109;-82
2022/02/22 00:49:47;;;;;;;18.85;5.65;;;;;;;20.10;41.41;101246.13;5012618;28;20472;-81
2022/02/22 00:52:12;;;;;;;15.70;4.72;;;;;;;20.11;41.21;101238.59;5012698;28;20635;-81
2022/02/22 00:54:38;;;;;;;26.15;5.93;;;;;;;20.12;41.34;101226.34;5012515;28;20030;-82
2022/02/22 00:57:04;;;;;;;16.63;4.20;;;;;;;20.14;41.44;101215.66;5012622;28;20487;-76
2022/02/22 00:59:29;;;;;;;22.30;5.45;;;;;;;20.00;41.80;101207.06;5012862;28;20471;-82
2022/02/22 01:01:55;;;;;;;13.93;5.40;;;;;;;20.05;41.88;101206.78;5012573;28;20026;-81
2022/02/22 01:04:21;;;;;;;19.10;6.18;;;;;;;20.14;41.65;101199.81;5012661;28;20101;-82
2022/02/22 01:06:46;;;;;;;15.48;5.10;;;;;;;20.16;41.74;101183.59;5012429;28;20037;-83
2022/02/22 01:09:14;;;;;;;19.55;6.07;;;;;;;20.18;41.76;101186.03;4995390;28;20404;-81
2022/02/22 01:11:41;;;;;;;18.67;4.85;;;;;;;20.17;41.81;101179.66;5013145;28;20025;-82
2022/02/22 01:14:08;;;;;;;20.63;5.13;;;;;;;20.20;41.75;101183.69;5013973;28;20080;-83
2022/02/22 01:16:34;;;;;;;21.58;4.95;;;;;;;20.26;41.85;101182.22;5013668;28;20025;-81
2022/02/22 01:19:00;;;;;;;15.88;5.07;;;;;;;20.26;41.88;101171.13;5012911;28;20052;-83
2022/02/22 01:21:26;;;;;;;16.85;5.32;;;;;;;20.31;41.67;101172.78;5012496;28;20065;-84
2022/02/22 01:23:52;;;;;;;17.63;4.45;;;;;;;20.30;41.88;101160.06;5012644;28;20026;-81
2022/02/22 01:26:17;;;;;;;15.25;5.28;;;;;;;20.26;42.13;101167.53;5012380;28;20030;-83
2022/02/22 01:28:44;;;;;;;20.95;6.18;;;;;;;20.11;42.39;101163.69;5013024;28;20133;-81
2022/02/22 01:31:10;;;;;;;16.83;5.95;;;;;;;20.16;42.33;101157.81;5012314;28;20022;-83
2022/02/22 01:33:37;;;;;;;16.92;4.05;;;;;;;20.22;42.26;101153.59;5012204;28;20071;-82
2022/02/22 01:36:03;;;;;;;19.15;5.32;;;;;;;20.20;42.27;101150.38;5014640;28;20499;-81
2022/02/22 01:38:29;;;;;;;17.02;5.43;;;;;;;20.17;42.24;101151.09;5015594;28;20025;-83
2022/02/22 01:40:56;;;;;;;24.92;7.13;;;;;;;20.23;42.21;101141.31;5015599;28;20048;-82
2022/02/22 01:43:23;;;;;;;24.05;6.07;;;;;;;20.34;42.06;101141.53;5015453;28;20041;-80
2022/02/22 01:45:49;;;;;;;16.75;4.97;;;;;;;20.25;42.11;101141.75;5015458;28;20030;-83
2022/02/22 01:48:14;;;;;;;24.42;5.22;;;;;;;20.23;42.27;101135.75;5015767;28;20029;-84
2022/02/22 01:50:40;;;;;;;18.05;5.65;;;;;;;20.29;42.12;101125.97;5015722;28;20022;-82
2022/02/22 01:53:06;;;;;;;14.57;4.57;;;;;;;20.33;41.96;101124.06;5015530;28;20021;-78
2022/02/22 01:55:32;;;;;;;18.30;5.32;;;;;;;20.29;42.06;101109.31;5015509;28;20021;-77
2022/02/22 01:57:58;;;;;;;18.63;5.18;;;;;;;20.30;42.07;101116.47;5015469;28;20029;-82
2022/02/22 02:00:27;;;;;;;20.65;5.35;;;;;;;20.34;41.99;101103.47;5015086;28;20069;-77
2022/02/22 02:02:55;;;;;;;21.33;5.47;;;;;;;20.33;42.09;101092.72;5015494;28;20049;-82
2022/02/22 02:05:22;;;;;;;19.95;4.85;;;;;;;20.31;42.02;101070.91;5015068;28;20400;-82
2022/02/22 02:07:48;;;;;;;17.13;4.65;;;;;;;20.26;42.21;101071.22;5015020;28;20030;-81
2022/02/22 02:10:13;;;;;;;21.98;4.82;;;;;;;20.22;42.20;101068.38;5014957;28;20057;-80
2022/02/22 02:12:40;;;;;;;17.00;4.80;;;;;;;20.33;42.05;101065.81;5014992;28;20037;-80
2022/02/22 02:15:07;;;;;;;17.42;4.30;;;;;;;20.38;41.95;101065.47;5014827;28;20569;-76
2022/02/22 02:17:34;;;;;;;23.00;5.88;;;;;;;20.42;41.76;101063.56;5014839;28;20480;-81
2022/02/22 02:20:05;;;;;;;17.70;4.97;;;;;;;20.41;41.75;101059.19;5014773;28;20032;-81
2022/02/22 02:22:31;;;;;;;23.15;5.57;;;;;;;20.36;41.85;101042.84;5014708;28;20084;-80
2022/02/22 02:24:57;;;;;;;22.85;6.63;;;;;;;20.42;41.73;101041.38;5014606;28;20052;-76
2022/02/22 02:27:22;;;;;;;19.38;5.13;;;;;;;20.44;41.60;101039.03;5014539;28;20030;-76
2022/02/22 02:29:48;;;;;;;26.23;5.95;;;;;;;20.38;41.68;101032.16;5014594;28;20022;-77
2022/02/22 02:32:14;;;;;;;19.52;5.00;;;;;;;20.47;41.45;101024.41;5014545;28;20084;-80
2022/02/22 02:34:40;;;;;;;21.55;5.82;;;;;;;20.43;41.73;101031.84;5014516;28;20469;-79
2022/02/22 02:37:06;;;;;;;17.70;4.95;;;;;;;20.50;41.45;101017.31;5014459;28;20037;-76
2022/02/22 02:39:32;;;;;;;19.50;5.72;;;;;;;20.47;41.42;101009.72;5014818;28;20542;-80
2022/02/22 02:41:58;;;;;;;16.00;5.43;;;;;;;20.46;41.48;100988.69;5014405;28;20030;-82
2022/02/22 02:44:24;;;;;;;22.92;6.72;;;;;;;20.39;41.30;100974.69;5014363;28;20065;-81
2022/02/22 02:46:50;;;;;;;16.80;4.80;;;;;;;20.32;41.43;100969.03;5013198;28;20030;-81
2022/02/22 02:49:18;;;;;;;20.42;6.22;;;;;;;20.19;41.71;100965.69;5014798;28;20036;-76
2022/02/22 02:51:44;;;;;;;17.88;5.70;;;;;;;20.17;41.54;100962.47;5016228;28;20026;-78
2022/02/22 02:54:11;;;;;;;17.52;4.55;;;;;;;20.23;41.44;100955.41;5016108;28;20096;-76
2022/02/22 02:56:37;;;;;;;20.05;4.97;;;;;;;20.23;41.30;100956.22;5014898;28;20033;-78
2022/02/22 02:59:05;;;;;;;21.02;6.30;;;;;;;20.23;41.17;100956.22;5013811;28;20057;-82
2022/02/22 03:01:32;;;;;;;20.30;5.30;;;;;;;20.07;41.43;100954.78;5014173;28;20030;-76
2022/02/22 03:03:58;;;;;;;19.05;4.90;;;;;;;20.17;41.22;100951.38;5014043;28;20026;-81
2022/02/22 03:06:24;;;;;;;19.98;5.90;;;;;;;20.27;40.91;100942.41;5013755;28;20034;-81
2022/02/22 03:08:50;;;;;;;21.63;6.65;;;;;;;20.15;41.12;100940.63;5013884;28;20056;-79
2022/02/22 03:11:16;;;;;;;19.10;5.90;;;;;;;20.24;40.96;100940.38;4996242;28;20026;-76
2022/02/22 03:13:43;;;;;;;19.10;5.20;;;;;;;20.14;41.03;100919.63;4996190;28;20026;-81
2022/02/22 03:16:09;;;;;;;18.15;5.50;;;;;;;20.18;40.94;100919.69;5015914;28;20479;-76
2022/02/22 03:18:35;;;;;;;16.35;5.20;;;;;;;20.05;40.94;100915.53;4995582;28;20073;-81
2022/02/22 03:21:01;;;;;;;14.95;5.05;;;;;;;20.13;40.80;100900.59;4976558;28;20037;-76
2022/02/22 03:23:27;;;;;;;20.88;5.00;;;;;;;20.18;40.43;100897.50;4993979;28;20023;-81
2022/02/22 03:25:53;;;;;;;18.55;5.43;;;;;;;20.22;40.26;100899.13;4993809;28;20520;-81
2022/02/22 03:28:19;;;;;;;21.80;5.07;;;;;;;20.05;40.70;100893.34;4993906;28;20053;-81
2022/02/22 03:30:45;;;;;;;23.00;4.93;;;;;;;19.95;40.53;100865.06;4993911;28;20023;-78
2022/02/22 03:33:11;;;;;;;17.20;5.15;;;;;;;20.06;40.47;100875.53;4993785;28;20069;-77
2022/02/22 03:35:38;;;;;;;16.27;4.80;;;;;;;20.15;40.13;100857.41;4993724;28;20026;-76
2022/02/22 03:38:04;;;;;;;17.52;5.05;;;;;;;20.17;40.15;100854.25;4993742;28;20385;-80
2022/02/22 03:40:30;;;;;;;17.45;4.55;;;;;;;20.02;40.23;100830.28;4993712;28;20027;-80
2022/02/22 03:42:56;;;;;;;18.02;5.05;;;;;;;20.00;40.29;100824.31;4993750;28;20045;-79
2022/02/22 03:45:22;;;;;;;16.55;4.70;;;;;;;20.04;40.50;100825.97;4993555;28;20603;-77
2022/02/22 03:47:48;;;;;;;21.88;5.60;;;;;;;20.15;39.77;100815.81;4993617;28;20037;-81
2022/02/22 03:50:15;;;;;;;12.93;3.70;;;;;;;20.14;39.58;100791.22;4993516;28;20029;-80
2022/02/22 03:52:43;;;;;;;18.95;4.45;;;;;;;20.10;39.73;100785.66;4993381;28;20030;-81
2022/02/22 03:55:09;;;;;;;15.90;3.95;;;;;;;19.96;39.98;100785.44;4993381;28;20038;-80
2022/02/22 03:57:36;;;;;;;20.90;5.95;;;;;;;20.15;39.59;100776.19;4993070;28;20028;-81
2022/02/22 04:00:05;;;;;;;12.20;4.20;;;;;;;20.11;39.31;100767.81;4993310;28;20069;-80
2022/02/22 04:02:31;;;;;;;19.30;5.18;;;;;;;20.12;39.46;100760.31;4993421;28;20030;-81
2022/02/22 04:04:58;;;;;;;13.93;4.90;;;;;;;20.06;39.42;100734.06;4993211;28;20033;-76
2022/02/22 04:07:25;;;;;;;14.90;5.88;;;;;;;20.15;39.25;100727.03;4975959;28;20030;-77
2022/02/22 04:09:50;;;;;;;19.60;4.53;;;;;;;20.09;39.40;100711.91;4993291;28;20060;-81
2022/02/22 04:12:17;;;;;;;16.88;3.85;;;;;;;19.97;39.66;100723.25;4993160;28;20031;-76
2022/02/22 04:14:43;;;;;;;23.75;5.15;;;;;;;20.04;39.32;100714.25;4993238;28;20057;-81
2022/02/22 04:17:09;;;;;;;20.52;4.55;;;;;;;20.17;39.23;100707.25;4993126;28;20061;-76
2022/02/22 04:19:35;;;;;;;17.60;5.60;;;;;;;20.14;39.30;100683.03;4993199;28;20081;-81
2022/02/22 04:22:00;;;;;;;20.80;5.13;;;;;;;20.29;39.24;100678.44;4993211;28;20026;-81
2022/02/22 04:24:26;;;;;;;21.63;4.43;;;;;;;20.11;39.25;100656.06;4993071;28;20037;-76
2022/02/22 04:26:51;;;;;;;17.88;4.45;;;;;;;20.30;38.97;100672.50;4993193;28;20038;-81
2022/02/22 04:29:17;;;;;;;17.13;5.05;;;;;;;20.16;39.32;100658.50;4993052;28;20032;-82
2022/02/22 04:31:43;;;;;;;14.05;4.85;;;;;;;20.37;38.81;100657.91;4992909;28;20548;-81
2022/02/22 04:34:09;;;;;;;11.73;3.38;;;;;;;20.19;39.04;100638.31;4993152;28;20105;-81
2022/02/22 04:36:35;;;;;;;17.33;4.43;;;;;;;20.28;38.93;100638.00;4992960;28;20046;-81
2022/02/22 04:39:03;;;;;;;13.10;3.65;;;;;;;20.28;38.93;100641.59;4993024;28;20492;-82
2022/02/22 04:41:29;;;;;;;17.90;4.43;;;;;;;20.11;39.40;100631.91;4993015;28;20097;-80
2022/02/22 04:43:55;;;;;;;20.35;5.22;;;;;;;20.33;38.98;100626.56;4992933;28;20078;-81
2022/02/22 04:46:21;;;;;;;15.35;4.55;;;;;;;20.42;38.70;100621.50;4992823;28;20483;-80
2022/02/22 04:48:46;;;;;;;21.23;4.32;;;;;;;20.48;38.44;100618.03;4992822;28;20026;-81
2022/02/22 04:51:12;;;;;;;18.25;5.47;;;;;;;20.27;38.92;100619.78;4992723;28;20068;-80
2022/02/22 04:53:37;;;;;;;22.15;4.90;;;;;;;20.31;38.90;100613.06;4992805;28;20026;-79
2022/02/22 04:56:03;;;;;;;13.50;4.95;;;;;;;20.14;39.31;100602.59;4992852;28;20026;-76
2022/02/22 04:58:29;;;;;;;22.02;5.20;;;;;;;20.38;38.91;100604.81;4992851;28;20023;-81
2022/02/22 05:00:55;;;;;;;18.50;4.57;;;;;;;20.32;39.03;100613.88;4992634;28;20054;-76
2022/02/22 05:03:21;;;;;;;18.00;4.28;;;;;;;20.08;39.66;100593.03;4975294;28;20037;-76
2022/02/22 05:05:49;;;;;;;21.77;5.57;;;;;;;19.91;40.09;100592.47;4992687;28;20026;-80
2022/02/22 05:08:15;;;;;;;14.82;3.97;;;;;;;19.94;40.14;100605.56;4992685;28;20381;-81
2022/02/22 05:10:41;;;;;;;16.02;4.75;;;;;;;20.13;39.81;100585.16;4994360;28;20109;-76
2022/02/22 05:13:06;;;;;;;18.20;5.43;;;;;;;19.92;40.42;100596.03;4996451;28;20429;-80
2022/02/22 05:15:33;;;;;;;18.08;5.07;;;;;;;19.82;40.95;100596.72;4996551;28;20026;-81
2022/02/22 05:17:59;;;;;;;15.75;3.95;;;;;;;19.87;40.96;100599.13;4996486;28;20077;-81
2022/02/22 05:20:25;;;;;;;14.02;4.32;;;;;;;19.64;41.48;100579.88;4996275;28;20450;-76
2022/02/22 05:22:51;;;;;;;13.40;4.70;;;;;;;19.71;41.41;100593.00;4996243;28;20073;-80
2022/02/22 05:25:17;;;;;;;15.68;4.07;;;;;;;19.62;41.55;100569.16;4996120;28;20026;-82
2022/02/22 05:27:44;;;;;;;19.55;5.38;;;;;;;19.63;41.69;100569.97;4996151;28;20158;-80
2022/02/22 05:30:15;;;;;;;12.52;3.60;;;;;;;19.53;41.96;100568.63;4996186;28;20385;-80
2022/02/22 05:32:41;;;;;;;17.85;5.03;;;;;;;19.66;41.47;100555.38;4996134;28;20029;-79
2022/02/22 05:35:08;;;;;;;20.98;5.03;;;;;;;19.73;41.57;100554.66;4995985;28;20477;-76
2022/02/22 05:37:34;;;;;;;15.05;4.85;;;;;;;19.77;41.44;100536.06;4996034;28;20026;-82
2022/02/22 05:40:04;;;;;;;15.45;4.47;;;;;;;19.71;41.55;100538.38;4995999;28;20023;-77
2022/02/22 05:42:29;;;;;;;18.20;5.47;;;;;;;19.59;42.27;100544.19;4995863;28;20429;-76
2022/02/22 05:44:56;;;;;;;21.60;5.63;;;;;;;19.50;42.53;100538.94;4995749;28;20125;-77
2022/02/22 05:47:22;;;;;;;21.92;6.20;;;;;;;19.55;42.48;100540.53;4995758;28;20474;-77
2022/02/22 05:49:48;;;;;;;21.17;5.75;;;;;;;19.49;42.67;100529.00;4995821;28;20042;-82
2022/02/22 05:52:15;;;;;;;18.08;4.80;;;;;;;19.52;42.68;100522.72;4995721;28;20037;-77
2022/02/22 05:54:41;;;;;;;20.52;6.07;;;;;;;19.58;42.99;100518.47;4995699;28;20061;-81
2022/02/22 05:57:07;;;;;;;22.02;5.25;;;;;;;19.46;43.24;100535.31;4995624;28;20114;-82
2022/02/22 05:59:32;;;;;;;19.98;5.38;;;;;;;19.38;43.51;100542.72;4995412;28;20401;-78
2022/02/22 06:01:58;;;;;;;19.25;5.10;;;;;;;19.32;43.89;100515.72;4995663;28;20110;-77
2022/02/22 06:04:26;;;;;;;20.25;5.13;;;;;;;19.53;43.62;100529.03;4995575;28;20089;-81
2022/02/22 06:06:52;;;;;;;24.88;6.18;;;;;;;19.67;43.28;100530.03;4995440;28;20034;-80
2022/02/22 06:09:18;;;;;;;21.10;5.22;;;;;;;19.51;43.72;100520.31;4995600;28;20507;-82
2022/02/22 06:11:44;;;;;;;18.88;6.15;;;;;;;19.45;44.09;100516.28;4995347;28;20054;-77
2022/02/22 06:14:10;;;;;;;21.73;4.93;;;;;;;19.47;44.14;100522.25;4995309;28;20065;-82
2022/02/22 06:16:36;;;;;;;22.23;5.88;;;;;;;19.57;44.22;100507.72;4995347;28;20031;-81
2022/02/22 06:19:02;;;;;;;19.67;4.55;;;;;;;19.71;43.73;100518.97;4995193;28;20052;-77
2022/02/22 06:21:28;;;;;;;19.52;5.32;;;;;;;19.40;44.75;100523.75;4994937;28;20034;-77
2022/02/22 06:23:53;;;;;;;22.10;5.53;;;;;;;19.48;44.55;100516.31;4995192;28;20034;-80
2022/02/22 06:26:19;;;;;;;19.48;4.70;;;;;;;19.58;44.42;100537.84;4995046;28;20070;-77
2022/02/22 06:28:46;;;;;;;16.77;5.30;;;;;;;19.36;45.37;100602.47;4995441;28;20031;-81
2022/02/22 06:31:12;;;;;;;8.23;2.72;;;;;;;17.61;48.79;100707.25;4995042;28;20030;-78
2022/02/22 06:33:38;;;;;;;3.72;1.35;;;;;;;17.81;47.59;100732.94;4995041;28;20130;-77
2022/02/22 06:36:04;;;;;;;1.02;0.68;;;;;;;18.01;46.14;100755.91;4994983;28;20396;-81
2022/02/22 06:38:30;;;;;;;2.17;0.95;;;;;;;18.15;45.36;100792.16;4994978;28;20088;-83
2022/02/22 06:40:55;;;;;;;3.35;0.90;;;;;;;18.43;44.42;100818.78;4994999;28;20042;-82
2022/02/22 06:43:22;;;;;;;1.95;0.50;;;;;;;18.39;44.23;100829.78;4994846;28;20026;-77
2022/02/22 06:45:48;;;;;;;2.83;0.90;;;;;;;18.27;44.07;100833.47;4994940;28;20030;-78
2022/02/22 06:48:14;;;;;;;4.47;1.08;;;;;;;18.10;44.08;100849.69;4977365;28;20654;-78
2022/02/22 06:50:40;;;;;;;1.70;0.80;;;;;;;18.09;43.84;100845.31;4994646;28;20113;-77
2022/02/22 06:53:07;;;;;;;3.25;0.52;;;;;;;17.87;44.08;100838.50;4994658;28;20474;-78
2022/02/22 06:55:33;;;;;;;4.38;1.55;;;;;;;18.14;43.56;100837.56;4994302;28;20038;-78
2022/02/22 06:58:03;;;;;;;4.88;1.10;;;;;;;18.13;43.45;100837.88;4994601;28;20366;-79
2022/02/22 07:00:30;;;;;;;3.15;0.68;;;;;;;18.00;43.60;100831.72;4994138;28;20092;-79
2022/02/22 07:02:56;;;;;;;3.13;0.93;;;;;;;18.22;43.02;100833.78;4999717;28;20394;-77
2022/02/22 07:05:22;;;;;;;0.55;0.35;;;;;;;17.76;44.11;100832.75;5006289;28;20051;-81
2022/02/22 07:07:49;;;;;;;3.05;0.93;;;;;;;18.08;43.69;100847.28;5001992;28;20034;-79
2022/02/22 07:10:15;;;;;;;5.07;0.75;;;;;;;17.85;43.93;100846.38;4978044;28;20022;-78
2022/02/22 07:12:41;;;;;;;2.08;0.65;;;;;;;18.01;43.69;100866.47;4995526;28;20029;-81
2022/02/22 07:15:07;;;;;;;2.30;0.52;;;;;;;17.60;44.48;100846.53;4996143;28;20022;-83
2022/02/22 07:17:52;;;;;;;1.60;0.60;;;;;;;17.75;44.17;100840.19;4994590;28;20050;-83
2022/02/22 07:20:20;;;;;;;5.38;0.95;;;;;;;17.51;44.60;100842.34;4994565;28;20030;-82
2022/02/22 07:22:46;;;;;;;2.20;0.77;;;;;;;16.79;45.91;100840.50;4994263;28;20034;-78
2022/02/22 07:25:13;;;;;;;7.60;1.70;;;;;;;17.30;44.66;100853.66;4994118;28;20023;-82
2022/02/22 07:27:40;;;;;;;3.75;1.00;;;;;;;17.15;45.03;100866.28;4994274;28;20026;-81
2022/02/22 07:30:07;;;;;;;3.78;1.40;;;;;;;17.39;44.33;100849.59;4994505;28;20103;-83
2022/02/22 07:32:33;;;;;;;2.88;0.70;;;;;;;17.24;44.59;100863.38;4993397;28;20022;-82
2022/02/22 07:34:59;;;;;;;5.97;1.25;;;;;;;17.25;44.39;100879.59;4994296;28;20026;-81
2022/02/22 07:37:25;;;;;;;5.40;1.67;;;;;;;16.79;45.38;100892.94;4993876;28;20022;-79
2022/02/22 07:39:50;;;;;;;6.80;1.48;;;;;;;17.06;44.72;100901.53;4993785;28;20026;-82
2022/02/22 07:42:16;;;;;;;5.35;1.55;;;;;;;16.80;45.17;100875.22;4976447;28;20511;-82
2022/02/22 07:44:42;;;;;;;9.68;1.80;;;;;;;16.90;44.87;100877.47;4993894;28;20027;-77
2022/02/22 07:47:08;;;;;;;4.68;1.60;;;;;;;17.11;44.33;100891.06;4993737;28;20501;-78
2022/02/22 07:49:33;;;;;;;7.40;1.75;;;;;;;16.89;44.66;100897.94;5008321;28;20037;-81
2022/02/22 07:51:59;;;;;;;6.38;1.85;;;;;;;17.11;44.09;100907.63;5012883;28;20164;-80
2022/02/22 07:54:24;;;;;;;5.30;1.80;;;;;;;17.15;43.99;100911.28;4995543;28;20084;-80
2022/02/22 07:56:50;;;;;;;8.25;2.53;;;;;;;17.36;43.67;100913.00;5013044;28;20026;-79
2022/02/22 07:59:16;;;;;;;5.55;1.38;;;;;;;17.20;44.15;100907.44;4995333;28;20025;-80
2022/02/22 08:01:42;;;;;;;8.93;2.03;;;;;;;17.28;43.78;100922.25;5013075;28;20500;-80
2022/02/22 08:04:07;;;;;;;6.22;1.80;;;;;;;17.33;43.86;100935.81;5012760;28;20432;-75
2022/02/22 08:06:33;;;;;;;5.47;1.90;;;;;;;17.22;44.01;100934.72;5012940;28;20064;-75
2022/02/22 08:08:59;;;;;;;9.10;1.58;;;;;;;17.34;43.73;100931.91;4995164;28;20030;-79
2022/02/22 08:11:29;;;;;;;11.45;2.22;;;;;;;17.47;43.52;100941.72;4995423;28;20026;-87
2022/02/22 08:13:55;;;;;;;9.07;2.13;;;;;;;17.28;43.61;100938.81;4995561;28;20022;-81
2022/02/22 08:16:21;;;;;;;9.35;2.20;;;;;;;17.36;43.66;100937.84;5012731;28;20030;-83
2022/02/22 08:18:47;;;;;;;14.02;2.08;;;;;;;17.48;43.07;100943.31;5012753;28;20552;-81
2022/02/22 08:21:12;;;;;;;6.75;1.48;;;;;;;17.32;43.33;100948.03;5012373;28;20637;-76
2022/02/22 08:23:38;;;;;;;7.57;1.60;;;;;;;17.27;43.33;100948.28;4995210;28;20018;-79
2022/02/22 08:26:05;;;;;;;2.88;1.27;;;;;;;17.33;43.36;100964.22;5012023;28;20033;-83
2022/02/22 08:28:30;;;;;;;8.55;1.90;;;;;;;17.23;43.73;100983.25;5012438;28;20030;-78
2022/02/22 08:30:57;;;;;;;9.10;2.00;;;;;;;17.31;43.42;100980.34;5012753;28;20022;-76
2022/02/22 08:33:22;;;;;;;8.32;1.80;;;;;;;17.32;43.35;100989.44;5012790;28;20507;-80
2022/02/22 08:35:48;;;;;;;5.45;1.60;;;;;;;17.40;43.27;100997.56;5012635;28;20033;-76
2022/02/22 08:38:14;;;;;;;9.32;2.20;;;;;;;17.41;43.38;101004.69;5011676;28;20518;-76
2022/02/22 08:40:39;;;;;;;11.73;2.45;;;;;;;17.57;42.96;101010.25;4993545;28;20026;-77
2022/02/22 08:43:05;;;;;;;6.00;1.70;;;;;;;17.57;43.23;101020.50;5011200;28;20029;-77
2022/02/22 08:45:31;;;;;;;7.75;2.63;;;;;;;17.55;43.39;101026.38;5014036;28;20141;-74
2022/02/22 08:47:57;;;;;;;6.60;2.05;;;;;;;17.58;43.24;101022.91;5009939;28;20038;-75
2022/02/22 08:50:24;;;;;;;8.70;1.90;;;;;;;17.59;43.36;101027.28;4997521;28;20286;-77
2022/02/22 08:52:49;;;;;;;7.32;2.45;;;;;;;17.51;43.49;101035.72;5011504;28;20036;-78
2022/02/22 08:55:16;;;;;;;7.38;2.08;;;;;;;17.44;43.81;101037.13;5013263;28;20017;-82
2022/02/22 08:57:42;;;;;;;11.52;3.15;;;;;;;17.56;43.52;101052.84;5014515;28;20132;-77
2022/02/22 09:00:10;;;;;;;9.75;2.00;;;;;;;17.40;43.99;101054.78;5019604;28;20057;-83
2022/02/22 09:02:37;;;;;;;11.73;3.20;;;;;;;17.51;43.81;101047.56;5016807;28;20026;-81
2022/02/22 09:05:04;;;;;;;9.38;3.15;;;;;;;17.21;44.31;101058.16;5013931;28;20033;-76
2022/02/22 09:07:30;;;;;;;19.88;3.85;;;;;;;17.29;44.15;101051.69;5012901;28;20539;-80
2022/02/22 09:09:58;;;;;;;16.70;2.97;;;;;;;17.03;44.86;101060.41;5013276;28;20033;-79
2022/02/22 09:12:24;;;;;;;10.23;3.05;;;;;;;17.27;44.46;101064.25;5012243;28;20488;-77
2022/02/22 09:14:49;;;;;;;14.25;3.67;;;;;;;17.38;43.94;101070.88;5012409;28;20080;-79
2022/02/22 09:17:15;;;;;;;13.73;2.70;;;;;;;17.30;44.12;101074.59;5012759;28;20033;-79
2022/02/22 09:19:40;;;;;;;8.57;3.08;;;;;;;17.34;44.23;101081.03;5012271;28;20387;-78
2022/02/22 09:22:08;;;;;;;12.65;3.53;;;;;;;17.29;44.30;101084.84;5013076;28;20026;-76
2022/02/22 09:24:33;;;;;;;11.93;3.55;;;;;;;17.40;44.20;101079.63;5013340;28;20380;-76
2022/02/22 09:26:59;;;;;;;20.15;4.07;;;;;;;17.34;44.69;101097.59;5013240;28;20041;-78
2022/02/22 09:29:24;;;;;;;16.27;3.58;;;;;;;17.06;45.05;101100.31;5013305;28;20444;-76
2022/02/22 09:31:50;;;;;;;14.60;3.30;;;;;;;17.54;44.05;101104.91;5013420;28;20029;-77
2022/02/22 09:34:16;;;;;;;14.70;3.70;;;;;;;17.57;43.75;101100.63;5012949;28;20033;-78
2022/02/22 09:36:42;;;;;;;16.25;4.05;;;;;;;17.74;43.41;101111.41;5008505;28;20112;-76
2022/02/22 09:39:08;;;;;;;16.55;4.30;;;;;;;17.90;43.15;101120.53;5010370;28;20473;-78
2022/02/22 09:41:35;;;;;;;12.40;3.17;;;;;;;18.06;43.16;101123.34;5010541;28;20054;-74
2022/02/22 09:44:01;;;;;;;14.77;3.65;;;;;;;18.10;43.36;101123.44;5011988;28;20473;-75
2022/02/22 09:46:30;;;;;;;15.60;4.13;;;;;;;18.13;43.11;101134.59;5011128;28;20046;-81
2022/02/22 09:48:55;;;;;;;18.17;4.25;;;;;;;18.11;43.31;101141.63;5010177;28;20173;-76
2022/02/22 09:51:22;;;;;;;17.38;4.18;;;;;;;18.26;42.98;101129.78;4996135;28;20133;-78
2022/02/22 09:53:47;;;;;;;15.68;3.75;;;;;;;17.98;43.83;101129.81;5009938;28;20041;-80
2022/02/22 09:56:13;;;;;;;18.00;3.72;;;;;;;17.95;43.59;101138.84;5010152;28;20033;-79
2022/02/22 09:58:39;;;;;;;29.65;6.60;;;;;;;18.09;43.52;101150.28;5011925;28;20025;-78
2022/02/22 10:01:06;;;;;;;16.55;3.90;;;;;;;18.31;43.03;101162.72;5011205;28;20697;-77
2022/02/22 10:03:31;;;;;;;13.70;3.10;;;;;;;18.23;43.02;101172.81;4993526;28;20045;-77
2022/02/22 10:06:00;;;;;;;14.18;3.15;;;;;;;17.57;43.80;101184.31;5012377;28;20030;-80
2022/02/22 10:08:30;;;;;;;17.92;3.92;;;;;;;18.00;42.73;101183.63;5011248;28;20049;-83
2022/02/22 10:11:07;;;;;;;10.70;3.30;;;;;;;17.68;43.32;101193.75;5011692;28;20036;-84
2022/02/22 10:13:34;;;;;;;12.75;3.10;;;;;;;17.73;43.44;101199.03;5011772;28;20038;-83
2022/02/22 10:16:08;;;;;;;13.45;3.20;;;;;;;17.88;43.27;101203.03;5011844;28;20184;-75
2022/02/22 10:18:44;;;;;;;19.27;3.33;;;;;;;17.60;43.30;101202.16;5009035;28;20173;-79
2022/02/22 10:21:10;;;;;;;12.63;3.03;;;;;;;17.75;43.03;101201.44;5010534;28;20038;-83
2022/02/22 10:23:35;;;;;;;13.70;3.35;;;;;;;17.76;42.89;101208.63;5011438;28;20598;-79
2022/02/22 10:26:01;;;;;;;17.40;4.15;;;;;;;17.65;42.74;101215.75;5010801;28;20060;-78
2022/02/22 10:28:28;;;;;;;13.13;3.08;;;;;;;17.77;42.05;101221.28;5010958;28;20496;-82
2022/02/22 10:30:54;;;;;;;16.15;4.30;;;;;;;17.51;42.68;101215.31;4993961;28;20032;-79
2022/02/22 10:33:22;;;;;;;11.43;3.50;;;;;;;17.55;42.45;101230.84;5011486;28;20042;-80
2022/02/22 10:35:51;;;;;;;11.38;2.78;;;;;;;17.82;41.95;101236.78;5011540;28;20033;-79
2022/02/22 10:38:31;;;;;;;11.02;3.50;;;;;;;17.61;42.17;101228.66;5012714;28;20069;-83
2022/02/22 10:41:03;;;;;;;11.68;3.10;;;;;;;17.87;41.59;101236.56;5010639;28;20033;-80
2022/02/22 10:43:31;;;;;;;14.52;3.10;;;;;;;17.60;41.70;101249.94;5010220;28;20432;-78
2022/02/22 10:46:03;;;;;;;12.30;2.70;;;;;;;17.38;41.56;101251.25;5011371;28;20036;-75
2022/02/22 10:48:36;;;;;;;13.93;2.78;;;;;;;18.01;40.60;101250.78;5009285;28;20037;-83
2022/02/22 10:51:05;;;;;;;9.80;2.72;;;;;;;17.94;40.60;101250.59;5010849;28;20053;-80
2022/02/22 10:53:43;;;;;;;10.85;2.40;;;;;;;17.38;41.11;101240.19;5010308;28;20033;-77
2022/02/22 10:56:12;;;;;;;12.40;3.50;;;;;;;17.33;41.09;101257.00;4992861;28;20064;-79
2022/02/22 10:58:40;;;;;;;14.18;2.63;;;;;;;17.40;40.69;101250.91;5009591;28;20029;-78
2022/02/22 11:01:10;;;;;;;13.45;3.47;;;;;;;17.90;40.06;101260.72;5011474;28;20042;-78
2022/02/22 11:03:37;;;;;;;13.30;3.00;;;;;;;18.18;39.59;101258.78;5011826;28;20112;-79
2022/02/22 11:06:03;;;;;;;10.80;3.78;;;;;;;17.65;40.49;101251.66;4995405;28;20044;-82
2022/02/22 11:08:31;;;;;;;14.38;3.40;;;;;;;18.08;39.65;101258.50;5012880;28;20362;-83
2022/02/22 11:11:35;;;;;;;13.25;3.17;;;;;;;17.63;39.91;101265.84;5013423;28;20159;-78
2022/02/22 11:14:09;;;;;;;11.50;3.42;;;;;;;18.32;38.71;101279.72;4983307;28;20065;-77
2022/02/22 11:16:46;;;;;;;11.50;2.67;;;;;;;18.30;38.91;101263.47;4995985;28;20052;-77